Nabulus, West Bank
Current Conditions -  °F | °C
As of 9:50 AM on Friday 31 Oct 2014 (Local Time) from LLBG Reporting Station
Scattered Clouds Scattered Clouds  
Wind Chill: 66°   Ceiling: Unl
Heat Index: 66°   Visibility: 6mi
Dew Point: 63°   Wind: 8mph
Humidity: 88%   Direction: 170°S
Pressure: 29.94"   Gusts: NA
Location:  32.23°N, 35.27°E
Report Text: LLBG 310650Z 17007KT 9999 SCT030 19/17 Q1014 BECMG 23018KT 5000TSRA FEW020CB BKN030
Loading
Personal Weather Stations






























Interactive Weather Map
Tropical Storm Tracking
New forecast layout! Learn more

10-Day Weather Forecast

Advertisements
Track Severe Weather on mobile